aviador You're here:

PFYU Decoded Metar

FORT YUKON in AK, USA
Report Time2018-07-19 18:56:00
UTC Time2018-07-19 19:20:38
Flight Rules vfr VFR
Wind240° at 11 Gusting to 20 kt
W.Decomp.*RWY 22: 11.0 kt HW 1 kt LCW
W.Rank240° ranks 7
Current wind is above 240° avg. (5.3)
Visibility9999 m
Phenomena:N/A
Clouds:Broken 038 Hf
Overcast 065 Hf
Expected CloudBase > 3,200 ft AGL from Temp-Dew spread
Ceiling3,800 ft
Temp16°C (ISA +4)
Dew Point08°C (59% RH)
AAT11.6°C
QNH1016 hPa
Density Alt1,909 ft
Elevation1,414 ft
Report Wrong Elevation
Raw Report
PFYU 191856Z 24011G20KT 10SM BKN038 OVC065 16/08 A3000=

Extra information for PFYU:More info

Metar Taf Metar & Taf Last 4 Metars F.Rules Stats Wind Profile Meteogram Temp Stats Airport Information Weather charts Add Link Nearby VenuesMetar ALERT Operation Metar Decoded Social comments

AIRNAV info for PFYU